Time;durP1;ratioP1;P1;durP2;ratioP2;P2;SDS_P1;SDS_P2;PMS_P1;PMS_P2;Temp;Humidity;BMP_temperature;BMP_pressure;BME280_temperature;BME280_humidity;BME280_pressure;Samples;Min_cycle;Max_cycle;Signal;HPM_P1;HPM_P2
2023/06/17 00:02:20;;;;;;;3.22;2.08;;;19.10;91.10;;;;;;4952386;29;20522;-61
2023/06/17 00:04:47;;;;;;;7.03;2.33;;;18.80;91.70;;;;;;4942028;29;20174;-60
2023/06/17 00:07:12;;;;;;;4.28;2.60;;;18.70;92.40;;;;;;4950307;29;20039;-61
2023/06/17 00:09:41;;;;;;;4.68;2.70;;;18.80;92.60;;;;;;4942041;29;20408;-60
2023/06/17 00:12:08;;;;;;;5.88;2.58;;;18.50;92.70;;;;;;4946941;29;20113;-61
2023/06/17 00:14:34;;;;;;;4.13;2.13;;;18.70;92.70;;;;;;4946282;29;20504;-61
2023/06/17 00:17:00;;;;;;;4.55;2.53;;;18.80;92.60;;;;;;4964308;28;20126;-61
2023/06/17 00:19:27;;;;;;;3.70;2.15;;;18.90;92.50;;;;;;4944459;29;20079;-61
2023/06/17 00:21:54;;;;;;;4.05;2.53;;;18.70;92.90;;;;;;4948242;29;20023;-60
2023/06/17 00:24:20;;;;;;;5.35;2.58;;;18.70;93.30;;;;;;4945254;29;20027;-61
2023/06/17 00:26:47;;;;;;;6.18;2.88;;;18.70;93.50;;;;;;4946219;29;20035;-61
2023/06/17 00:29:13;;;;;;;4.18;2.38;;;18.70;93.50;;;;;;4945978;29;20515;-61
2023/06/17 00:31:39;;;;;;;7.22;2.83;;;18.60;93.90;;;;;;4945989;29;20035;-60
2023/06/17 00:34:05;;;;;;;6.05;2.65;;;18.60;95.80;;;;;;4946329;29;20057;-60
2023/06/17 00:36:30;;;;;;;5.55;2.40;;;18.30;97.00;;;;;;4944685;29;20035;-60
2023/06/17 00:38:56;;;;;;;6.35;2.80;;;18.40;96.90;;;;;;4946363;29;20050;-61
2023/06/17 00:41:22;;;;;;;5.10;2.30;;;18.30;97.30;;;;;;4945726;29;20031;-60
2023/06/17 00:43:48;;;;;;;3.15;1.92;;;18.30;97.40;;;;;;4945944;29;20475;-61
2023/06/17 00:46:30;;;;;;;5.53;2.53;;;18.40;96.70;;;;;;4945627;28;20050;-61
2023/06/17 00:48:56;;;;;;;4.65;2.33;;;18.40;96.80;;;;;;4946081;28;20035;-61
2023/06/17 00:51:22;;;;;;;4.95;2.70;;;18.40;96.80;;;;;;4944545;29;20031;-60
2023/06/17 00:53:48;;;;;;;6.32;2.67;;;18.30;96.80;;;;;;4947572;29;20023;-60
2023/06/17 00:56:17;;;;;;;5.10;2.58;;;18.30;96.90;;;;;;4945544;29;20031;-61
2023/06/17 00:58:45;;;;;;;5.97;3.00;;;18.20;97.10;;;;;;4945909;29;20395;-61
2023/06/17 01:01:11;;;;;;;6.85;2.53;;;17.70;98.40;;;;;;4944384;29;20053;-60
2023/06/17 01:03:37;;;;;;;5.15;1.98;;;17.80;98.70;;;;;;4945412;29;20492;-60
2023/06/17 01:06:12;;;;;;;5.47;2.53;;;17.60;99.00;;;;;;4925263;29;20031;-61
2023/06/17 01:08:47;;;;;;;8.98;2.70;;;17.60;99.10;;;;;;4948429;28;20030;-60
2023/06/17 01:11:16;;;;;;;6.03;2.40;;;17.60;99.60;;;;;;4932752;29;20028;-61
2023/06/17 01:13:45;;;;;;;4.43;2.40;;;17.50;99.90;;;;;;4924892;29;20027;-60
2023/06/17 01:16:11;;;;;;;5.13;2.40;;;17.50;99.90;;;;;;4932521;28;20028;-62
2023/06/17 01:18:40;;;;;;;4.80;2.22;;;17.50;99.90;;;;;;4924083;29;20023;-62
2023/06/17 01:21:06;;;;;;;7.90;3.22;;;17.40;99.90;;;;;;4943857;29;20580;-62
2023/06/17 01:23:35;;;;;;;4.43;2.35;;;17.50;99.90;;;;;;4945043;29;20083;-63
2023/06/17 01:26:02;;;;;;;4.05;2.28;;;17.60;99.90;;;;;;4945191;29;20082;-63
2023/06/17 01:28:29;;;;;;;4.07;2.05;;;17.60;99.90;;;;;;4946382;29;20035;-63
2023/06/17 01:30:56;;;;;;;5.00;2.40;;;17.60;99.90;;;;;;4943738;29;20043;-63
2023/06/17 01:33:24;;;;;;;4.22;2.42;;;17.60;99.70;;;;;;4944807;29;20028;-63
2023/06/17 01:36:10;;;;;;;4.22;2.10;;;17.60;99.60;;;;;;4945011;29;20023;-63
2023/06/17 01:38:44;;;;;;;4.13;2.05;;;17.60;99.80;;;;;;4947949;28;20035;-63
2023/06/17 01:41:35;;;;;;;5.85;2.10;;;17.70;99.60;;;;;;4933083;29;20032;-63
2023/06/17 01:44:03;;;;;;;5.20;2.08;;;17.80;99.70;;;;;;4930262;29;20039;-63
2023/06/17 01:46:29;;;;;;;8.40;2.40;;;17.70;99.90;;;;;;4944666;29;20035;-63
2023/06/17 01:48:56;;;;;;;3.65;1.90;;;17.60;99.90;;;;;;4947085;29;20024;-62
2023/06/17 01:51:22;;;;;;;5.35;2.30;;;17.60;99.90;;;;;;4943467;28;20028;-62
2023/06/17 01:53:48;;;;;;;4.30;2.53;;;17.50;99.90;;;;;;4946211;29;20105;-62
2023/06/17 01:56:14;;;;;;;6.00;2.53;;;17.50;99.90;;;;;;4943410;29;20030;-62
2023/06/17 01:58:40;;;;;;;7.07;2.45;;;17.50;99.90;;;;;;4944795;28;20028;-62
2023/06/17 02:01:06;;;;;;;8.23;2.90;;;17.60;99.90;;;;;;4944498;29;20042;-62
2023/06/17 02:03:32;;;;;;;6.05;3.03;;;17.70;99.90;;;;;;4944495;29;20451;-64
2023/06/17 02:05:58;;;;;;;6.05;2.55;;;17.70;99.90;;;;;;4944585;29;20027;-62
2023/06/17 02:08:24;;;;;;;4.60;2.42;;;17.70;99.90;;;;;;4944897;29;20032;-61
2023/06/17 02:10:50;;;;;;;5.10;2.40;;;17.70;99.90;;;;;;4943174;29;20027;-61
2023/06/17 02:13:16;;;;;;;5.38;2.78;;;17.70;99.80;;;;;;4946173;29;20051;-62
2023/06/17 02:15:42;;;;;;;5.22;2.90;;;17.60;99.80;;;;;;4947372;28;20083;-62
2023/06/17 02:18:12;;;;;;;7.22;2.90;;;17.40;99.90;;;;;;4930008;29;20032;-62
2023/06/17 02:20:38;;;;;;;7.03;2.30;;;17.50;99.90;;;;;;4932289;29;20035;-62
2023/06/17 02:23:04;;;;;;;5.25;2.78;;;17.30;99.90;;;;;;4930132;29;20106;-62
2023/06/17 02:25:30;;;;;;;5.63;3.13;;;17.20;99.90;;;;;;4942677;29;20047;-62
2023/06/17 02:27:56;;;;;;;4.70;2.38;;;17.10;99.90;;;;;;4948784;29;20039;-62
2023/06/17 02:30:22;;;;;;;4.30;2.90;;;16.80;99.90;;;;;;4940619;29;20059;-62
2023/06/17 02:32:47;;;;;;;6.68;3.40;;;16.70;99.90;;;;;;4951121;29;20078;-62
2023/06/17 02:35:13;;;;;;;7.07;2.97;;;16.60;99.90;;;;;;4940027;29;20067;-62
2023/06/17 02:37:40;;;;;;;6.22;3.17;;;16.80;99.90;;;;;;4952400;29;20155;-63
2023/06/17 02:40:08;;;;;;;5.18;2.40;;;16.70;99.90;;;;;;4937578;29;20070;-61
2023/06/17 02:42:38;;;;;;;6.65;3.10;;;16.70;99.90;;;;;;4951826;29;20456;-62
2023/06/17 02:45:05;;;;;;;9.18;3.22;;;16.80;99.90;;;;;;4937671;29;20066;-62
2023/06/17 02:47:31;;;;;;;5.97;2.30;;;16.90;99.90;;;;;;4951253;29;20082;-63
2023/06/17 02:49:57;;;;;;;6.55;2.50;;;16.80;99.90;;;;;;4937100;29;20036;-63
2023/06/17 02:52:23;;;;;;;4.40;2.30;;;16.60;99.90;;;;;;4947108;29;20058;-62
2023/06/17 02:54:50;;;;;;;6.32;3.00;;;16.70;99.90;;;;;;4941941;29;20542;-62
2023/06/17 02:57:16;;;;;;;4.22;2.40;;;16.80;99.90;;;;;;4948396;29;20090;-62
2023/06/17 02:59:42;;;;;;;6.05;2.60;;;16.90;99.90;;;;;;4942896;29;20042;-63
2023/06/17 03:02:08;;;;;;;5.22;2.67;;;17.00;99.90;;;;;;4942180;29;20031;-62
2023/06/17 03:04:37;;;;;;;4.18;2.58;;;17.00;99.90;;;;;;4929927;29;20039;-61
2023/06/17 03:07:06;;;;;;;5.60;3.22;;;17.10;99.90;;;;;;4944080;29;20036;-61
2023/06/17 03:09:32;;;;;;;5.93;3.03;;;17.20;99.90;;;;;;4938712;28;20032;-62
2023/06/17 03:11:59;;;;;;;4.50;2.65;;;17.20;99.90;;;;;;4932648;29;20039;-62
2023/06/17 03:14:25;;;;;;;8.20;3.42;;;17.20;99.90;;;;;;4932894;29;20062;-61
2023/06/17 03:16:51;;;;;;;11.18;3.28;;;17.10;99.90;;;;;;4929108;29;20118;-62
2023/06/17 03:19:17;;;;;;;5.20;3.03;;;17.10;99.90;;;;;;4938517;29;20448;-62
2023/06/17 03:21:45;;;;;;;7.38;3.42;;;17.10;99.90;;;;;;4942988;29;20114;-61
2023/06/17 03:24:11;;;;;;;3.92;2.88;;;17.20;99.90;;;;;;4942022;29;20035;-62
2023/06/17 03:26:37;;;;;;;5.60;3.08;;;17.20;99.90;;;;;;4938279;29;20039;-61
2023/06/17 03:29:04;;;;;;;13.45;3.67;;;17.10;99.90;;;;;;4949191;29;20039;-62
2023/06/17 03:31:29;;;;;;;3.75;2.25;;;16.90;99.90;;;;;;4945816;29;20114;-61
2023/06/17 03:33:55;;;;;;;6.82;3.03;;;16.70;99.90;;;;;;4947006;29;20118;-61
2023/06/17 03:36:25;;;;;;;5.55;2.85;;;16.80;99.90;;;;;;4943765;29;20450;-62
2023/06/17 03:38:51;;;;;;;5.20;2.63;;;16.90;99.90;;;;;;4939199;29;20031;-62
2023/06/17 03:41:17;;;;;;;7.50;3.08;;;17.00;99.90;;;;;;4945575;29;20549;-61
2023/06/17 03:43:43;;;;;;;5.45;2.92;;;17.00;99.90;;;;;;4947187;29;20031;-62
2023/06/17 03:46:09;;;;;;;6.93;2.85;;;16.90;99.90;;;;;;4946614;29;20032;-62
2023/06/17 03:48:35;;;;;;;4.68;2.50;;;16.70;99.90;;;;;;4947137;29;20031;-62
2023/06/17 03:51:02;;;;;;;5.75;2.60;;;16.70;99.90;;;;;;4945264;29;20027;-62
2023/06/17 03:53:29;;;;;;;6.13;3.03;;;16.60;99.90;;;;;;4948438;29;20028;-62
2023/06/17 03:55:55;;;;;;;6.50;2.88;;;16.70;99.90;;;;;;4945139;29;20484;-62
2023/06/17 03:58:21;;;;;;;3.85;2.08;;;16.60;99.90;;;;;;4976374;23;20133;-63
2023/06/17 04:00:49;;;;;;;5.47;2.83;;;16.70;99.90;;;;;;5003788;28;20092;-63
2023/06/17 04:03:15;;;;;;;8.00;3.22;;;16.60;99.90;;;;;;4992318;28;20035;-63
2023/06/17 04:05:42;;;;;;;6.03;2.95;;;16.30;99.90;;;;;;4972795;28;20085;-63
2023/06/17 04:08:08;;;;;;;6.40;2.33;;;16.10;99.90;;;;;;4997453;28;20042;-63
2023/06/17 04:10:34;;;;;;;6.38;2.60;;;15.80;99.90;;;;;;4982723;28;20030;-63
2023/06/17 04:13:01;;;;;;;5.82;2.63;;;15.90;99.90;;;;;;4991525;28;20089;-63
2023/06/17 04:15:27;;;;;;;6.70;2.83;;;15.90;99.90;;;;;;4993163;28;20038;-64
2023/06/17 04:17:52;;;;;;;5.82;3.35;;;16.00;99.90;;;;;;4991968;28;20038;-64
2023/06/17 04:20:19;;;;;;;6.45;3.13;;;15.90;99.90;;;;;;5001633;28;20034;-63
2023/06/17 04:22:45;;;;;;;6.72;2.55;;;16.00;99.90;;;;;;5007262;28;20121;-64
2023/06/17 04:25:15;;;;;;;4.50;2.83;;;16.10;99.90;;;;;;5000831;28;20152;-64
2023/06/17 04:27:41;;;;;;;6.70;3.35;;;16.20;99.90;;;;;;5008221;28;20035;-64
2023/06/17 04:30:08;;;;;;;6.55;3.13;;;16.40;99.90;;;;;;5000641;28;20041;-64
2023/06/17 04:32:38;;;;;;;8.13;3.22;;;16.50;99.90;;;;;;4991349;28;20037;-63
2023/06/17 04:35:05;;;;;;;13.75;3.80;;;16.70;99.90;;;;;;4983337;28;20023;-64
2023/06/17 04:37:34;;;;;;;9.13;3.10;;;16.80;99.90;;;;;;4991241;28;20030;-64
2023/06/17 04:40:00;;;;;;;8.65;3.53;;;16.90;99.90;;;;;;4983491;28;20026;-63
2023/06/17 04:42:27;;;;;;;5.93;2.80;;;16.80;99.90;;;;;;5008282;28;20026;-63
2023/06/17 04:44:53;;;;;;;6.75;3.42;;;16.90;99.90;;;;;;4994617;28;20073;-63
2023/06/17 04:47:19;;;;;;;10.40;3.05;;;17.00;99.90;;;;;;4992082;28;20084;-62
2023/06/17 04:49:47;;;;;;;4.78;2.70;;;17.00;99.90;;;;;;4999262;28;20069;-62
2023/06/17 04:52:19;;;;;;;7.47;2.75;;;17.00;99.90;;;;;;4991092;28;20433;-63
2023/06/17 04:54:46;;;;;;;5.65;2.33;;;17.10;99.90;;;;;;4978722;28;20027;-64
2023/06/17 04:57:13;;;;;;;5.10;2.72;;;17.20;99.90;;;;;;4987872;28;20084;-64
2023/06/17 04:59:39;;;;;;;6.65;2.78;;;17.20;99.90;;;;;;4979183;28;20030;-64
2023/06/17 05:02:05;;;;;;;6.43;2.78;;;17.40;99.90;;;;;;5002759;28;20038;-62
2023/06/17 05:04:31;;;;;;;5.22;2.63;;;17.30;99.90;;;;;;5000770;28;20117;-62
2023/06/17 05:06:56;;;;;;;4.40;2.55;;;17.50;99.90;;;;;;4988468;28;20029;-64
2023/06/17 05:09:22;;;;;;;7.40;2.80;;;17.60;99.90;;;;;;5001805;28;20030;-64
2023/06/17 05:11:49;;;;;;;4.53;2.60;;;17.70;99.90;;;;;;4973170;28;20038;-64
2023/06/17 05:14:15;;;;;;;6.47;3.03;;;17.70;99.90;;;;;;4981195;28;20500;-64
2023/06/17 05:16:40;;;;;;;7.00;2.70;;;17.60;99.90;;;;;;4984578;28;20026;-64
2023/06/17 05:19:06;;;;;;;6.05;3.45;;;17.70;99.90;;;;;;4980919;28;20088;-64
2023/06/17 05:21:32;;;;;;;5.00;3.00;;;17.80;99.90;;;;;;5002815;28;20120;-64
2023/06/17 05:23:58;;;;;;;7.88;3.88;;;17.90;99.90;;;;;;4979712;28;20478;-64
2023/06/17 05:26:24;;;;;;;5.55;2.92;;;17.80;99.90;;;;;;4985476;28;20399;-65
2023/06/17 05:28:49;;;;;;;7.45;3.72;;;17.80;99.90;;;;;;5003231;28;20037;-64
2023/06/17 05:31:15;;;;;;;4.82;3.17;;;17.90;99.90;;;;;;5003000;28;20038;-64
2023/06/17 05:33:41;;;;;;;9.63;4.13;;;17.90;99.90;;;;;;4985048;28;20383;-64
2023/06/17 05:36:07;;;;;;;6.97;3.58;;;18.10;99.90;;;;;;5002417;28;20042;-64
2023/06/17 05:38:32;;;;;;;9.63;2.95;;;18.00;99.90;;;;;;5002944;28;20026;-64
2023/06/17 05:40:58;;;;;;;7.45;3.50;;;18.20;99.90;;;;;;4985550;28;20044;-64
2023/06/17 05:43:28;;;;;;;6.80;3.40;;;18.40;99.90;;;;;;5002686;28;20031;-64
2023/06/17 05:45:54;;;;;;;6.93;3.63;;;18.50;99.90;;;;;;5002857;28;20034;-64
2023/06/17 05:48:19;;;;;;;7.45;4.47;;;18.60;99.90;;;;;;5002448;28;20042;-64
2023/06/17 05:50:45;;;;;;;7.07;3.78;;;18.60;99.90;;;;;;4985364;28;20036;-64
2023/06/17 05:53:11;;;;;;;9.52;3.67;;;18.70;99.90;;;;;;4985363;28;20034;-64
2023/06/17 05:55:37;;;;;;;7.78;3.80;;;18.80;99.90;;;;;;5002695;28;20037;-64
2023/06/17 05:58:02;;;;;;;7.10;3.10;;;18.80;99.90;;;;;;4981475;28;20473;-64
2023/06/17 06:00:28;;;;;;;7.75;2.95;;;18.90;99.90;;;;;;4998285;28;20034;-64
2023/06/17 06:02:54;;;;;;;7.32;4.03;;;18.90;99.90;;;;;;4989732;28;20033;-64
2023/06/17 06:05:20;;;;;;;7.07;3.53;;;18.80;99.90;;;;;;5000442;28;20057;-64
2023/06/17 06:07:45;;;;;;;8.80;3.78;;;18.90;99.90;;;;;;5006178;28;20113;-64
2023/06/17 06:10:12;;;;;;;7.53;3.53;;;18.90;99.90;;;;;;4998246;28;20031;-64
2023/06/17 06:12:38;;;;;;;5.93;3.20;;;18.90;99.90;;;;;;4989811;28;20045;-64
2023/06/17 06:15:05;;;;;;;6.22;3.10;;;19.00;99.90;;;;;;4999288;28;20036;-64
2023/06/17 06:17:31;;;;;;;5.53;3.17;;;18.90;99.90;;;;;;4999096;28;20042;-66
2023/06/17 06:19:57;;;;;;;10.65;3.45;;;19.10;99.90;;;;;;4992158;28;20030;-44
2023/06/17 06:22:23;;;;;;;7.40;3.50;;;19.30;99.20;;;;;;5000259;28;20400;-46
2023/06/17 06:24:49;;;;;;;7.03;3.42;;;19.20;99.20;;;;;;4989177;28;20026;-51
2023/06/17 06:27:15;;;;;;;11.32;3.72;;;19.40;98.80;;;;;;4999285;28;20042;-48
2023/06/17 06:29:40;;;;;;;8.85;3.17;;;19.60;98.30;;;;;;4996133;28;20022;-47
2023/06/17 06:32:07;;;;;;;7.15;3.10;;;19.60;98.10;;;;;;4976697;28;20398;-45
2023/06/17 06:34:33;;;;;;;7.38;3.42;;;19.60;97.80;;;;;;4976017;28;20031;-47
2023/06/17 06:36:59;;;;;;;7.47;3.58;;;19.80;97.40;;;;;;4979168;28;20457;-50
2023/06/17 06:39:26;;;;;;;8.52;3.47;;;19.80;97.10;;;;;;4971633;28;20034;-46
2023/06/17 06:41:52;;;;;;;6.88;3.33;;;19.90;96.90;;;;;;4990344;28;20476;-46
2023/06/17 06:44:18;;;;;;;6.00;2.92;;;20.10;96.40;;;;;;4978837;28;20070;-47
2023/06/17 06:46:45;;;;;;;6.85;3.40;;;20.00;96.50;;;;;;4979800;28;20038;-48
2023/06/17 06:49:11;;;;;;;8.77;3.20;;;20.10;96.70;;;;;;5002414;28;20084;-47
2023/06/17 06:51:37;;;;;;;7.45;3.75;;;20.20;96.30;;;;;;4975287;28;20062;-51
2023/06/17 06:54:05;;;;;;;7.55;3.95;;;20.10;96.40;;;;;;5002272;28;20061;-49
2023/06/17 06:56:31;;;;;;;6.00;3.75;;;20.30;96.20;;;;;;5010360;28;20422;-52
2023/06/17 06:58:57;;;;;;;8.48;3.60;;;20.20;96.00;;;;;;5001210;28;20082;-47
2023/06/17 07:01:24;;;;;;;6.78;3.63;;;20.30;96.00;;;;;;5001892;28;20062;-47
2023/06/17 07:03:50;;;;;;;9.63;3.20;;;20.30;95.90;;;;;;5001916;28;20533;-53
2023/06/17 07:06:16;;;;;;;5.78;3.13;;;20.40;95.80;;;;;;5005869;28;20058;-54
2023/06/17 07:08:42;;;;;;;12.45;4.65;;;20.50;95.40;;;;;;5001352;28;20057;-49
2023/06/17 07:11:07;;;;;;;7.20;3.13;;;20.70;95.10;;;;;;5001323;28;20116;-48
2023/06/17 07:13:33;;;;;;;6.07;3.47;;;20.80;95.20;;;;;;5000687;28;20828;-49
2023/06/17 07:15:59;;;;;;;5.50;3.25;;;20.80;94.80;;;;;;5008656;28;20450;-51
2023/06/17 07:18:24;;;;;;;10.13;3.75;;;20.90;94.60;;;;;;5002939;28;20030;-48
2023/06/17 07:20:50;;;;;;;9.73;3.83;;;21.00;94.40;;;;;;5007461;28;20037;-46
2023/06/17 07:23:16;;;;;;;6.82;3.25;;;21.00;94.30;;;;;;5003863;28;20444;-49
2023/06/17 07:25:41;;;;;;;8.48;3.70;;;20.80;94.40;;;;;;5006170;28;20381;-47
2023/06/17 07:28:07;;;;;;;8.30;4.22;;;21.00;94.30;;;;;;5004340;28;20038;-51
2023/06/17 07:30:33;;;;;;;10.18;4.07;;;21.10;94.30;;;;;;5005140;28;20038;-50
2023/06/17 07:32:59;;;;;;;9.52;4.85;;;21.20;94.20;;;;;;4986804;28;20038;-49
2023/06/17 07:35:25;;;;;;;7.82;4.47;;;21.00;94.20;;;;;;4987620;28;20041;-47
2023/06/17 07:37:54;;;;;;;8.43;3.67;;;21.20;94.00;;;;;;5004510;28;20029;-48
2023/06/17 07:40:20;;;;;;;12.60;4.53;;;21.40;93.50;;;;;;5004965;28;20030;-46
2023/06/17 07:42:46;;;;;;;9.23;3.78;;;21.50;93.40;;;;;;5004094;28;20034;-65
2023/06/17 07:45:12;;;;;;;5.75;3.15;;;21.70;93.70;;;;;;4987408;28;20087;-64
2023/06/17 07:47:38;;;;;;;8.57;4.18;;;21.70;93.40;;;;;;5004235;28;20038;-65
2023/06/17 07:50:05;;;;;;;9.02;4.35;;;21.90;92.90;;;;;;4986423;28;20053;-64
2023/06/17 07:52:33;;;;;;;7.60;3.95;;;21.90;92.50;;;;;;5002674;28;20117;-64
2023/06/17 07:54:59;;;;;;;17.15;3.97;;;22.00;92.50;;;;;;5004459;28;20034;-65
2023/06/17 07:57:25;;;;;;;11.38;5.28;;;22.20;92.20;;;;;;5002349;28;20030;-64
2023/06/17 07:59:51;;;;;;;7.85;4.28;;;22.30;92.00;;;;;;4997681;28;20117;-64
2023/06/17 08:02:17;;;;;;;11.70;3.90;;;22.40;91.90;;;;;;5003509;28;20158;-63
2023/06/17 08:04:43;;;;;;;8.40;3.88;;;22.40;91.80;;;;;;4987062;28;20037;-65
2023/06/17 08:07:10;;;;;;;8.95;4.68;;;22.40;91.60;;;;;;5004021;28;20041;-64
2023/06/17 08:09:36;;;;;;;9.63;4.78;;;22.40;91.40;;;;;;4983560;28;20481;-65
2023/06/17 08:12:02;;;;;;;9.50;4.55;;;22.50;91.40;;;;;;4982106;28;20031;-65
2023/06/17 08:14:28;;;;;;;7.28;3.65;;;22.60;91.10;;;;;;5003279;28;20434;-63
2023/06/17 08:16:55;;;;;;;11.38;5.00;;;22.60;91.20;;;;;;4989047;28;20120;-64
2023/06/17 08:19:21;;;;;;;8.32;3.60;;;22.60;91.20;;;;;;5002025;28;20035;-64
2023/06/17 08:21:47;;;;;;;9.38;4.60;;;22.90;90.80;;;;;;4989475;28;20102;-64
2023/06/17 08:24:18;;;;;;;8.30;4.13;;;23.00;90.70;;;;;;5000886;28;20034;-64
2023/06/17 08:26:44;;;;;;;;;;;23.10;90.40;;;;;;4990509;28;20069;-64
2023/06/17 08:29:12;;;;;;;6.68;3.20;;;23.10;90.20;;;;;;4983175;28;19917;-63
2023/06/17 08:31:40;;;;;;;7.88;4.40;;;23.20;90.10;;;;;;4975060;28;20034;-64
2023/06/17 08:34:06;;;;;;;6.57;3.42;;;23.30;89.40;;;;;;5000557;28;20104;-64
2023/06/17 08:36:32;;;;;;;7.57;3.35;;;23.30;89.50;;;;;;5007962;28;20521;-64
2023/06/17 08:39:00;;;;;;;6.93;3.72;;;23.40;89.70;;;;;;5000112;28;20100;-64
2023/06/17 08:41:27;;;;;;;8.32;4.22;;;23.40;88.80;;;;;;5008194;28;20052;-65
2023/06/17 08:44:00;;;;;;;7.60;3.45;;;23.60;87.50;;;;;;4982977;28;20026;-64
2023/06/17 08:46:27;;;;;;;7.90;4.13;;;23.80;87.60;;;;;;5007945;28;20026;-64
2023/06/17 08:48:53;;;;;;;7.93;3.28;;;23.80;86.70;;;;;;4982657;28;20463;-64
2023/06/17 08:51:20;;;;;;;7.28;3.40;;;24.00;86.80;;;;;;4990743;28;20042;-63
2023/06/17 08:53:47;;;;;;;7.13;3.30;;;24.20;86.50;;;;;;4982064;28;20420;-63
2023/06/17 08:56:13;;;;;;;9.48;3.63;;;24.40;85.00;;;;;;4990993;28;20104;-63
2023/06/17 08:58:39;;;;;;;11.30;3.80;;;24.70;83.20;;;;;;4998778;28;20125;-65
2023/06/17 09:01:06;;;;;;;9.23;3.92;;;24.90;82.30;;;;;;5007347;28;20112;-65
2023/06/17 09:03:36;;;;;;;5.70;3.53;;;25.10;81.30;;;;;;4999849;28;20034;-65
2023/06/17 09:06:25;;;;;;;7.63;4.00;;;25.20;77.60;;;;;;4989999;28;20253;-64
2023/06/17 09:08:53;;;;;;;5.63;3.53;;;25.10;77.10;;;;;;4993639;28;20049;-64
2023/06/17 09:11:31;;;;;;;6.13;3.45;;;25.00;76.60;;;;;;4998654;28;20038;-65
2023/06/17 09:14:00;;;;;;;7.13;3.47;;;25.00;74.90;;;;;;4994505;28;20025;-64
2023/06/17 09:16:35;;;;;;;5.75;2.72;;;25.00;75.00;;;;;;4983610;28;20042;-64
2023/06/17 09:19:05;;;;;;;6.30;2.92;;;25.20;71.40;;;;;;4978019;28;20399;-64
2023/06/17 09:21:31;;;;;;;7.20;3.53;;;25.30;71.20;;;;;;4954678;28;20042;-64
2023/06/17 09:23:59;;;;;;;8.73;3.85;;;25.50;70.40;;;;;;4961747;28;20113;-65
2023/06/17 09:26:55;;;;;;;5.63;3.00;;;25.70;69.80;;;;;;4967533;28;20402;-63
2023/06/17 09:29:21;;;;;;;7.35;3.13;;;25.90;68.20;;;;;;4964297;28;20047;-64
2023/06/17 09:31:52;;;;;;;6.82;2.90;;;26.00;67.40;;;;;;4968319;28;20483;-63
2023/06/17 09:34:20;;;;;;;3.97;2.25;;;26.10;65.90;;;;;;4966841;28;20042;-64
2023/06/17 09:37:00;;;;;;;6.90;3.13;;;25.90;64.80;;;;;;4969232;28;20092;-63
2023/06/17 09:39:33;;;;;;;7.10;3.15;;;26.00;65.30;;;;;;4968547;28;20603;-63
2023/06/17 09:42:10;;;;;;;10.00;4.20;;;26.20;64.50;;;;;;4967818;28;20046;-64
2023/06/17 09:44:40;;;;;;;9.80;4.15;;;25.90;66.90;;;;;;4959079;28;20457;-72
2023/06/17 09:47:10;;;;;;;9.07;2.92;;;26.10;66.70;;;;;;4976994;28;20037;-65
2023/06/17 09:49:36;;;;;;;3.88;2.03;;;26.30;63.30;;;;;;4975428;28;20047;-65
2023/06/17 09:52:05;;;;;;;5.22;2.25;;;26.60;62.00;;;;;;4974906;28;20387;-65
2023/06/17 09:54:33;;;;;;;5.70;2.67;;;26.80;62.20;;;;;;4967430;28;20033;-66
2023/06/17 09:57:01;;;;;;;5.22;2.88;;;26.70;61.30;;;;;;4969392;28;20043;-65
2023/06/17 09:59:28;;;;;;;4.00;2.03;;;26.90;61.70;;;;;;4970695;23;20050;-64
2023/06/17 10:01:54;;;;;;;5.35;2.60;;;26.60;61.00;;;;;;4963229;28;20126;-63
2023/06/17 10:04:21;;;;;;;5.60;2.40;;;26.60;60.90;;;;;;4939291;28;20159;-63
2023/06/17 10:06:50;;;;;;;3.20;2.03;;;26.70;59.60;;;;;;4966333;28;20031;-61
2023/06/17 10:09:16;;;;;;;16.58;3.13;;;26.70;60.10;;;;;;4962417;28;20067;-61
2023/06/17 10:11:47;;;;;;;7.50;2.92;;;26.60;59.80;;;;;;4959801;28;20459;-63
2023/06/17 10:14:29;;;;;;;5.25;2.78;;;26.80;59.80;;;;;;4943064;28;20481;-67
2023/06/17 10:16:55;;;;;;;7.45;2.03;;;27.10;59.20;;;;;;4925066;29;20035;-64
2023/06/17 10:19:31;;;;;;;6.07;2.35;;;27.30;58.50;;;;;;4949054;28;20036;-67
2023/06/17 10:21:59;;;;;;;3.35;1.88;;;27.40;58.50;;;;;;4967110;28;20038;-68
2023/06/17 10:24:26;;;;;;;4.75;2.35;;;27.50;58.50;;;;;;4962880;28;20026;-62
2023/06/17 10:26:52;;;;;;;3.28;1.60;;;27.70;57.90;;;;;;4935426;29;20086;-62
2023/06/17 10:29:20;;;;;;;2.78;1.92;;;27.70;56.20;;;;;;4954855;28;20031;-62
2023/06/17 10:31:46;;;;;;;3.20;1.80;;;27.80;56.20;;;;;;4964733;28;20371;-62
2023/06/17 10:34:22;;;;;;;6.68;2.72;;;27.80;56.70;;;;;;4942003;28;20027;-62
2023/06/17 10:36:53;;;;;;;4.25;2.10;;;27.70;54.90;;;;;;4945262;28;20044;-62
2023/06/17 10:39:19;;;;;;;3.58;1.98;;;27.60;55.00;;;;;;4945593;28;20046;-62
2023/06/17 10:41:49;;;;;;;9.02;2.22;;;27.70;56.10;;;;;;4948246;28;20515;-62
2023/06/17 10:44:33;;;;;;;7.20;2.13;;;27.80;54.70;;;;;;4964202;28;20372;-62
2023/06/17 10:47:00;;;;;;;4.30;2.00;;;27.60;54.30;;;;;;4941733;28;20582;-62
2023/06/17 10:49:38;;;;;;;3.70;1.75;;;27.60;54.60;;;;;;4978053;28;20031;-63
2023/06/17 10:52:05;;;;;;;2.72;1.55;;;27.80;54.90;;;;;;4968058;28;20031;-62
2023/06/17 10:54:33;;;;;;;3.88;1.83;;;28.00;55.10;;;;;;4981298;28;21469;-62
2023/06/17 10:57:04;;;;;;;4.15;1.83;;;28.30;53.40;;;;;;4969978;28;20601;-62
2023/06/17 10:59:32;;;;;;;5.63;2.45;;;28.20;51.50;;;;;;4966047;28;20094;-63
2023/06/17 11:02:03;;;;;;;3.83;2.33;;;28.00;51.30;;;;;;4969475;28;20047;-63
2023/06/17 11:04:30;;;;;;;3.40;2.30;;;28.10;52.80;;;;;;4963969;28;20035;-63
2023/06/17 11:06:58;;;;;;;3.15;1.95;;;28.20;53.40;;;;;;4954593;28;20118;-62
2023/06/17 11:09:28;;;;;;;3.17;1.77;;;28.40;53.40;;;;;;4964243;28;20043;-62
2023/06/17 11:11:55;;;;;;;8.77;2.05;;;28.50;52.40;;;;;;4957639;28;20042;-61
2023/06/17 11:14:29;;;;;;;4.30;1.95;;;28.70;51.50;;;;;;4962355;28;20027;-61
2023/06/17 11:16:56;;;;;;;4.97;2.03;;;28.70;50.20;;;;;;4969363;28;20054;-61
2023/06/17 11:19:25;;;;;;;4.32;2.05;;;28.70;50.60;;;;;;4963603;28;20070;-62
2023/06/17 11:22:03;;;;;;;7.47;2.50;;;28.70;50.50;;;;;;4969847;28;20035;-61
2023/06/17 11:24:32;;;;;;;3.80;2.03;;;29.00;50.60;;;;;;4965280;28;20039;-61
2023/06/17 11:26:59;;;;;;;6.93;1.60;;;29.30;51.80;;;;;;4969680;28;20035;-62
2023/06/17 11:29:26;;;;;;;5.80;2.03;;;29.50;50.70;;;;;;4964908;28;20027;-62
2023/06/17 11:31:53;;;;;;;6.20;1.80;;;29.40;50.20;;;;;;4967873;28;20023;-62
2023/06/17 11:34:22;;;;;;;3.92;2.33;;;29.10;51.30;;;;;;4944535;28;20098;-61
2023/06/17 11:36:53;;;;;;;3.35;1.58;;;28.90;51.20;;;;;;4954486;28;20500;-62
2023/06/17 11:39:23;;;;;;;3.25;1.83;;;29.40;51.80;;;;;;4962583;28;20046;-62
2023/06/17 11:41:52;;;;;;;3.88;2.17;;;29.80;51.00;;;;;;4962272;28;20086;-62
2023/06/17 11:44:20;;;;;;;3.78;2.22;;;29.60;50.10;;;;;;4962476;28;20042;-62
2023/06/17 11:46:50;;;;;;;7.65;2.20;;;29.50;50.00;;;;;;4963074;28;20046;-62
2023/06/17 11:49:15;;;;;;;5.35;2.28;;;29.60;50.70;;;;;;4963043;28;20051;-62
2023/06/17 11:51:48;;;;;;;3.35;2.10;;;29.60;50.90;;;;;;4971166;28;20070;-63
2023/06/17 11:54:14;;;;;;;3.58;1.92;;;29.60;51.20;;;;;;4962954;28;20031;-62
2023/06/17 11:56:40;;;;;;;5.03;2.17;;;30.00;51.60;;;;;;4971164;28;20026;-63
2023/06/17 11:59:06;;;;;;;3.55;1.92;;;30.30;50.10;;;;;;4960875;28;20514;-60
2023/06/17 12:01:33;;;;;;;5.90;2.03;;;30.50;50.30;;;;;;4970473;28;20039;-60
2023/06/17 12:03:59;;;;;;;3.13;1.85;;;30.20;49.10;;;;;;4962065;28;20035;-60
2023/06/17 12:06:27;;;;;;;5.03;2.28;;;30.10;48.90;;;;;;4953901;28;20391;-61
2023/06/17 12:09:03;;;;;;;3.05;1.65;;;30.20;49.70;;;;;;4955569;28;20502;-61
2023/06/17 12:11:35;;;;;;;4.03;1.92;;;30.10;49.40;;;;;;4957008;28;20098;-61
2023/06/17 12:14:12;;;;;;;4.43;2.15;;;30.40;49.30;;;;;;4956368;28;20042;-60
2023/06/17 12:16:41;;;;;;;3.58;2.17;;;30.70;49.10;;;;;;4950478;28;20091;-61
2023/06/17 12:19:19;;;;;;;5.15;2.03;;;30.60;48.80;;;;;;4960274;28;20359;-61
2023/06/17 12:21:44;;;;;;;3.50;1.88;;;30.80;48.90;;;;;;4936653;29;21131;-61
2023/06/17 12:24:13;;;;;;;4.30;2.05;;;31.00;48.10;;;;;;4960891;28;20122;-60
2023/06/17 12:26:39;;;;;;;3.05;1.80;;;30.80;47.40;;;;;;4936054;29;20106;-59
2023/06/17 12:29:05;;;;;;;3.30;2.00;;;30.70;49.10;;;;;;4960156;28;20099;-65
2023/06/17 12:31:31;;;;;;;4.45;2.17;;;31.10;48.10;;;;;;4953006;28;20034;-61
2023/06/17 12:33:56;;;;;;;3.22;1.60;;;31.00;47.90;;;;;;4961976;28;20019;-60
2023/06/17 12:36:22;;;;;;;2.55;1.45;;;31.40;47.00;;;;;;4953215;28;20023;-61
2023/06/17 12:38:49;;;;;;;2.72;1.67;;;31.70;46.80;;;;;;4960072;28;20031;-61
2023/06/17 12:41:15;;;;;;;2.90;1.75;;;31.70;46.80;;;;;;4969183;28;20030;-62
2023/06/17 12:43:41;;;;;;;2.55;1.50;;;31.70;46.20;;;;;;4961755;28;20042;-61
2023/06/17 12:46:08;;;;;;;3.45;2.10;;;32.00;46.50;;;;;;4969334;28;20137;-61
2023/06/17 12:48:34;;;;;;;4.43;2.05;;;31.20;47.20;;;;;;4956765;28;20027;-61